createdAt,value
2022-12-27T00:01:14.715Z,63.68
2022-12-27T00:03:43.727Z,63.45
2022-12-27T00:06:13.145Z,63.69
2022-12-27T00:08:41.224Z,63.49
2022-12-27T00:11:11.403Z,63.20
2022-12-27T00:13:41.143Z,63.59
2022-12-27T00:16:12.530Z,63.44
2022-12-27T00:18:41.701Z,63.88
2022-12-27T00:21:12.912Z,63.61
2022-12-27T00:23:42.838Z,63.88
2022-12-27T00:26:14.761Z,63.93
2022-12-27T00:28:44.333Z,63.67
2022-12-27T00:31:12.444Z,63.64
2022-12-27T00:33:42.970Z,64.40
2022-12-27T00:36:14.252Z,64.07
2022-12-27T00:38:42.280Z,63.69
2022-12-27T00:41:11.376Z,64.28
2022-12-27T00:43:39.250Z,64.40
2022-12-27T00:46:12.021Z,64.36
2022-12-27T00:48:40.404Z,64.13
2022-12-27T00:51:12.376Z,63.82
2022-12-27T00:53:40.669Z,64.82
2022-12-27T00:56:09.317Z,64.39
2022-12-27T00:58:40.816Z,64.84
2022-12-27T01:01:12.490Z,64.87
2022-12-27T01:03:41.269Z,64.89
2022-12-27T01:06:10.848Z,64.45
2022-12-27T01:08:38.884Z,64.60
2022-12-27T01:11:08.551Z,64.56
2022-12-27T01:13:37.511Z,64.23
2022-12-27T01:16:12.682Z,64.67
2022-12-27T01:18:40.834Z,65.24
2022-12-27T01:21:10.518Z,64.55
2022-12-27T01:23:38.712Z,64.57
2022-12-27T01:26:09.026Z,64.84
2022-12-27T01:28:37.317Z,64.87
2022-12-27T01:31:12.172Z,64.73
2022-12-27T01:33:40.261Z,64.41
2022-12-27T01:36:15.931Z,64.58
2022-12-27T01:38:44.610Z,64.95
2022-12-27T01:41:34.445Z,64.86
2022-12-27T01:44:02.550Z,65.08
2022-12-27T01:46:32.060Z,65.00
2022-12-27T01:49:03.303Z,64.83
2022-12-27T01:51:33.031Z,65.16
2022-12-27T01:54:01.515Z,65.69
2022-12-27T01:56:32.403Z,65.76
2022-12-27T01:59:04.235Z,65.44
2022-12-27T02:01:37.717Z,64.72
2022-12-27T02:04:10.134Z,64.71
2022-12-27T02:06:39.363Z,64.80
2022-12-27T02:09:14.788Z,64.75
2022-12-27T02:11:56.464Z,64.86
2022-12-27T02:14:29.912Z,65.18
2022-12-27T02:17:02.199Z,64.73
2022-12-27T02:19:55.345Z,65.52
2022-12-27T02:23:12.649Z,65.51
2022-12-27T02:26:07.422Z,65.27
2022-12-27T02:28:55.101Z,65.14
2022-12-27T02:31:31.101Z,66.09
2022-12-27T02:34:01.571Z,65.83
2022-12-27T02:36:33.783Z,65.12
2022-12-27T02:39:03.986Z,66.12
2022-12-27T02:41:53.549Z,65.57
2022-12-27T02:44:40.259Z,65.88
2022-12-27T02:47:37.289Z,65.31
2022-12-27T02:50:24.009Z,65.17
2022-12-27T02:53:06.605Z,65.25
2022-12-27T02:56:07.655Z,65.05
2022-12-27T02:58:49.102Z,65.68
2022-12-27T03:01:45.312Z,65.83
2022-12-27T03:04:33.036Z,65.96
2022-12-27T03:07:23.839Z,65.66
2022-12-27T03:10:22.360Z,66.29
2022-12-27T03:13:14.458Z,65.92
2022-12-27T03:16:09.480Z,65.92
2022-12-27T03:18:57.831Z,65.52
2022-12-27T03:21:50.107Z,65.80
2022-12-27T03:24:39.567Z,65.25
2022-12-27T03:27:18.710Z,65.35
2022-12-27T03:30:10.578Z,65.06
2022-12-27T03:33:04.463Z,65.39
2022-12-27T03:35:39.810Z,65.20
2022-12-27T03:38:08.005Z,65.23
2022-12-27T03:41:04.965Z,65.00
2022-12-27T03:43:35.810Z,65.04
2022-12-27T03:46:32.057Z,65.37
2022-12-27T03:49:13.560Z,65.54
2022-12-27T03:51:46.117Z,65.24
2022-12-27T03:54:26.741Z,66.07
2022-12-27T03:56:57.210Z,65.29
2022-12-27T03:59:25.853Z,65.87
2022-12-27T04:01:54.673Z,65.72
2022-12-27T04:04:22.744Z,65.84
2022-12-27T04:06:52.289Z,65.77
2022-12-27T04:09:38.701Z,65.71
2022-12-27T04:12:24.729Z,65.52
2022-12-27T04:15:10.539Z,65.82
2022-12-27T04:17:55.992Z,65.82
2022-12-27T04:20:42.232Z,65.85
2022-12-27T04:23:28.775Z,66.13
2022-12-27T04:26:14.728Z,65.25
2022-12-27T04:31:47.320Z,65.77
2022-12-27T04:34:32.395Z,65.22
2022-12-27T04:37:00.653Z,65.45
2022-12-27T04:39:29.947Z,65.71
2022-12-27T04:42:15.019Z,65.76
2022-12-27T04:45:00.003Z,65.57
2022-12-27T04:47:45.934Z,65.82
2022-12-27T04:50:42.427Z,66.05
2022-12-27T04:53:30.512Z,66.19
2022-12-27T04:56:00.477Z,66.15
2022-12-27T04:58:28.491Z,66.23
2022-12-27T05:01:16.612Z,65.99
2022-12-27T05:03:50.291Z,66.18
2022-12-27T05:06:19.409Z,66.53
2022-12-27T05:09:04.678Z,66.58
2022-12-27T05:11:51.823Z,66.29
2022-12-27T05:14:19.636Z,66.67
2022-12-27T05:16:47.519Z,66.62
2022-12-27T05:19:16.616Z,66.16
2022-12-27T05:22:06.932Z,66.14
2022-12-27T05:24:53.113Z,66.80
2022-12-27T05:27:22.287Z,65.70
2022-12-27T05:29:50.068Z,66.21
2022-12-27T05:32:18.464Z,65.91
2022-12-27T05:34:46.240Z,66.41
2022-12-27T05:37:15.240Z,66.13
2022-12-27T05:39:43.946Z,66.33
2022-12-27T05:42:11.933Z,65.79
2022-12-27T05:44:41.401Z,65.76
2022-12-27T05:47:10.120Z,66.00
2022-12-27T05:49:37.956Z,66.45
2022-12-27T05:52:06.067Z,66.12
2022-12-27T05:54:34.905Z,65.70
2022-12-27T05:57:02.699Z,66.27
2022-12-27T05:59:30.669Z,66.03
2022-12-27T06:02:00.685Z,66.77
2022-12-27T06:04:28.676Z,65.88
2022-12-27T06:06:56.467Z,66.36
2022-12-27T06:09:24.961Z,67.03
2022-12-27T06:11:52.959Z,66.62
2022-12-27T06:14:20.876Z,65.92
2022-12-27T06:16:49.117Z,66.88
2022-12-27T06:19:18.472Z,66.39
2022-12-27T06:21:46.503Z,65.80
2022-12-27T06:24:14.834Z,66.92
2022-12-27T06:26:43.576Z,66.36
2022-12-27T06:29:12.901Z,66.24
2022-12-27T06:31:41.894Z,67.18
2022-12-27T06:34:11.456Z,66.93
2022-12-27T06:36:40.945Z,66.92
2022-12-27T06:39:09.192Z,66.35
2022-12-27T06:41:37.103Z,66.26
2022-12-27T06:44:05.117Z,66.70
2022-12-27T06:46:33.407Z,66.37
2022-12-27T06:49:01.666Z,66.87
2022-12-27T06:51:29.462Z,66.71
2022-12-27T06:53:59.258Z,66.71
2022-12-27T06:56:27.145Z,66.96
2022-12-27T06:58:55.078Z,66.83
2022-12-27T07:01:27.124Z,66.49
2022-12-27T07:03:56.989Z,66.97
2022-12-27T07:06:27.406Z,66.72
2022-12-27T07:08:55.575Z,66.75
2022-12-27T07:11:25.991Z,66.64
2022-12-27T07:13:56.467Z,66.60
2022-12-27T07:16:26.798Z,66.65
2022-12-27T07:18:56.656Z,66.58
2022-12-27T07:21:26.848Z,66.72
2022-12-27T07:23:55.117Z,66.55
2022-12-27T07:26:29.003Z,66.92
2022-12-27T07:28:57.748Z,66.03
2022-12-27T07:31:30.159Z,66.74
2022-12-27T07:33:58.725Z,66.66
2022-12-27T07:36:29.267Z,66.35
2022-12-27T07:38:57.875Z,66.04
2022-12-27T07:41:27.147Z,66.45
2022-12-27T07:43:55.175Z,66.32
2022-12-27T07:46:25.819Z,65.61
2022-12-27T07:48:54.847Z,66.21
2022-12-27T07:51:22.646Z,65.49
2022-12-27T07:53:51.893Z,66.29
2022-12-27T07:56:25.846Z,65.84
2022-12-27T07:58:58.139Z,65.43
2022-12-27T08:01:28.702Z,65.58
2022-12-27T08:03:57.011Z,65.27
2022-12-27T08:06:29.321Z,66.01
2022-12-27T08:08:59.133Z,65.52
2022-12-27T08:11:27.374Z,65.70
2022-12-27T08:13:56.933Z,65.05
2022-12-27T08:16:26.587Z,65.62
2022-12-27T08:18:54.663Z,65.61
2022-12-27T08:21:24.431Z,65.96
2022-12-27T08:23:52.776Z,65.87
2022-12-27T08:26:20.568Z,65.19
2022-12-27T08:28:48.890Z,65.48
2022-12-27T08:31:18.197Z,65.86
2022-12-27T08:33:46.052Z,65.89
2022-12-27T08:36:45.342Z,65.74
2022-12-27T08:39:03.068Z,66.04
2022-12-27T08:41:31.169Z,66.03
2022-12-27T08:43:58.896Z,66.43
2022-12-27T08:46:28.046Z,65.98
2022-12-27T08:48:55.978Z,66.30
2022-12-27T08:51:34.412Z,66.30
2022-12-27T08:54:08.708Z,65.63
2022-12-27T08:56:36.541Z,66.56
2022-12-27T08:59:04.603Z,66.13
2022-12-27T09:01:34.123Z,65.87
2022-12-27T09:04:02.040Z,66.38
2022-12-27T09:06:29.726Z,66.52
2022-12-27T09:08:58.016Z,66.13
2022-12-27T09:11:27.333Z,65.96
2022-12-27T09:13:56.836Z,66.22
2022-12-27T09:16:27.705Z,65.41
2022-12-27T09:18:58.991Z,65.65
2022-12-27T09:21:30.528Z,65.86
2022-12-27T09:23:59.584Z,65.99
2022-12-27T09:26:30.344Z,65.96
2022-12-27T09:28:59.141Z,65.13
2022-12-27T09:31:28.041Z,65.15
2022-12-27T09:33:58.471Z,65.49
2022-12-27T09:36:28.549Z,65.80
2022-12-27T09:38:57.817Z,66.09
2022-12-27T09:44:33.452Z,65.85
2022-12-27T09:47:06.124Z,65.65
2022-12-27T09:49:38.912Z,65.63
2022-12-27T09:52:12.623Z,64.75
2022-12-27T09:55:01.056Z,65.37
2022-12-27T09:57:37.233Z,64.60
2022-12-27T10:00:08.274Z,64.91
2022-12-27T10:02:36.680Z,65.08
2022-12-27T10:05:20.847Z,64.56
2022-12-27T10:08:00.778Z,64.30
2022-12-27T10:10:43.827Z,64.80
2022-12-27T10:13:29.394Z,67.54
2022-12-27T10:16:09.644Z,65.42
2022-12-27T10:18:48.765Z,63.93
2022-12-27T10:21:22.320Z,64.25
2022-12-27T10:23:55.614Z,63.89
2022-12-27T10:26:24.349Z,63.67
2022-12-27T10:28:57.540Z,63.99
2022-12-27T10:31:27.011Z,63.94
2022-12-27T10:33:55.310Z,63.85
2022-12-27T10:36:27.503Z,64.14
2022-12-27T10:38:56.148Z,63.77
2022-12-27T10:41:40.020Z,64.56
2022-12-27T10:44:11.902Z,64.37
2022-12-27T10:46:42.758Z,64.48
2022-12-27T10:49:24.291Z,64.68
2022-12-27T10:51:55.477Z,64.31
2022-12-27T10:54:26.212Z,64.04
2022-12-27T10:56:55.333Z,64.53
2022-12-27T10:59:25.161Z,64.31
2022-12-27T11:02:16.932Z,63.83
2022-12-27T11:04:57.963Z,64.22
2022-12-27T11:07:30.831Z,63.54
2022-12-27T11:10:08.482Z,63.48
2022-12-27T11:12:36.634Z,63.59
2022-12-27T11:15:06.687Z,63.62
2022-12-27T11:17:39.983Z,63.26
2022-12-27T11:20:21.868Z,63.34
2022-12-27T11:22:54.156Z,63.48
2022-12-27T11:25:22.953Z,63.25
2022-12-27T11:27:55.669Z,63.61
2022-12-27T11:30:26.957Z,63.33
2022-12-27T11:32:55.252Z,62.85
2022-12-27T11:35:24.736Z,63.01
2022-12-27T11:37:54.505Z,63.15
2022-12-27T11:40:26.494Z,62.84
2022-12-27T11:43:02.900Z,62.52
2022-12-27T11:45:36.657Z,62.71
2022-12-27T11:48:12.668Z,62.86
2022-12-27T11:51:22.268Z,62.72
2022-12-27T11:54:07.036Z,62.49
2022-12-27T11:56:37.596Z,61.88
2022-12-27T11:59:43.967Z,62.09
2022-12-27T12:02:33.181Z,61.68
2022-12-27T12:05:46.108Z,61.91
2022-12-27T12:08:34.277Z,61.81
2022-12-27T12:11:17.331Z,61.48
2022-12-27T12:14:21.450Z,61.70
2022-12-27T12:17:17.534Z,61.27
2022-12-27T12:20:04.374Z,61.50
2022-12-27T12:22:46.717Z,61.63
2022-12-27T12:25:35.677Z,61.47
2022-12-27T12:28:57.712Z,61.57
2022-12-27T12:31:33.102Z,61.60
2022-12-27T12:34:15.679Z,61.07
2022-12-27T12:36:55.224Z,61.03
2022-12-27T12:39:40.205Z,61.10
2022-12-27T12:42:20.338Z,61.16
2022-12-27T12:45:07.331Z,61.25
2022-12-27T12:47:59.710Z,60.71
2022-12-27T12:50:44.740Z,61.03
2022-12-27T12:53:30.648Z,61.13
2022-12-27T12:56:17.390Z,60.83
2022-12-27T12:58:58.861Z,60.69
2022-12-27T13:01:52.808Z,60.67
2022-12-27T13:04:55.639Z,61.21
2022-12-27T13:07:37.810Z,61.14
2022-12-27T13:10:39.055Z,60.99
2022-12-27T13:13:16.512Z,61.17
2022-12-27T13:15:55.337Z,61.00
2022-12-27T13:18:31.377Z,60.86
2022-12-27T13:21:12.830Z,60.68
2022-12-27T13:23:54.056Z,60.97
2022-12-27T13:26:31.246Z,61.06
2022-12-27T13:29:31.062Z,61.00
2022-12-27T13:32:06.638Z,61.00
2022-12-27T13:34:46.090Z,61.26
2022-12-27T13:37:25.498Z,61.05
2022-12-27T13:40:24.642Z,61.21
2022-12-27T13:43:20.179Z,61.01
2022-12-27T13:46:02.347Z,60.65
2022-12-27T13:48:56.508Z,61.00
2022-12-27T13:51:45.052Z,60.74
2022-12-27T13:54:53.246Z,60.42
2022-12-27T13:57:36.559Z,60.77
2022-12-27T14:00:18.346Z,60.58
2022-12-27T14:03:28.403Z,60.48
2022-12-27T14:06:15.772Z,60.11
2022-12-27T14:09:06.934Z,59.74
2022-12-27T14:11:47.727Z,59.80
2022-12-27T14:14:20.019Z,59.71
2022-12-27T14:17:09.699Z,59.54
2022-12-27T14:19:53.506Z,59.40
2022-12-27T14:22:54.005Z,59.83
2022-12-27T14:25:57.325Z,59.51
2022-12-27T14:29:00.071Z,59.11
2022-12-27T14:31:50.727Z,59.19
2022-12-27T14:34:57.415Z,59.10
2022-12-27T14:37:59.469Z,59.41
2022-12-27T14:40:55.108Z,59.21
2022-12-27T14:43:58.929Z,59.28
2022-12-27T14:46:50.285Z,59.29
2022-12-27T14:49:43.012Z,59.31
2022-12-27T14:53:16.663Z,59.25
2022-12-27T14:55:55.296Z,59.19
2022-12-27T14:58:47.501Z,59.15
2022-12-27T15:01:27.074Z,59.05
2022-12-27T15:04:03.608Z,59.26
2022-12-27T15:06:48.711Z,59.11
2022-12-27T15:09:26.010Z,59.14
2022-12-27T15:12:07.062Z,59.09
2022-12-27T15:14:58.003Z,59.25
2022-12-27T15:17:52.698Z,59.17
2022-12-27T15:20:43.133Z,59.53
2022-12-27T15:23:21.420Z,59.32
2022-12-27T15:25:59.964Z,59.59
2022-12-27T15:28:44.285Z,59.32
2022-12-27T15:31:22.514Z,59.15
2022-12-27T15:34:12.473Z,59.80
2022-12-27T15:36:42.371Z,59.50
2022-12-27T15:39:44.381Z,59.60
2022-12-27T15:42:37.276Z,59.48
2022-12-27T15:45:18.508Z,59.88
2022-12-27T15:48:09.769Z,59.68
2022-12-27T15:50:48.626Z,59.53
2022-12-27T15:53:38.049Z,59.59
2022-12-27T15:56:33.684Z,59.77
2022-12-27T15:59:41.063Z,59.90
2022-12-27T16:02:33.464Z,60.12
2022-12-27T16:05:13.854Z,59.89
2022-12-27T16:07:45.916Z,60.15
2022-12-27T16:10:35.472Z,60.15
2022-12-27T16:13:21.813Z,60.04
2022-12-27T16:15:55.106Z,60.36
2022-12-27T16:19:02.176Z,60.49
2022-12-27T16:21:40.902Z,60.12
2022-12-27T16:24:16.604Z,60.23
2022-12-27T16:26:59.565Z,60.13
2022-12-27T16:29:32.905Z,60.31
2022-12-27T16:32:19.147Z,60.34
2022-12-27T16:34:52.067Z,60.00
2022-12-27T16:37:37.156Z,60.08
2022-12-27T16:40:42.162Z,60.22
2022-12-27T16:43:48.400Z,60.31
2022-12-27T16:46:43.549Z,60.44
2022-12-27T16:49:56.380Z,60.26
2022-12-27T16:53:00.342Z,60.25
2022-12-27T16:55:51.612Z,60.16
2022-12-27T16:58:33.610Z,60.12
2022-12-27T17:01:03.063Z,59.94
2022-12-27T17:03:46.565Z,60.50
2022-12-27T17:06:51.386Z,60.16
2022-12-27T17:09:54.297Z,60.38
2022-12-27T17:12:26.554Z,60.61
2022-12-27T17:15:02.855Z,60.86
2022-12-27T17:17:32.009Z,60.86
2022-12-27T17:20:03.979Z,60.75
2022-12-27T17:22:35.190Z,60.83
2022-12-27T17:25:17.532Z,60.45
2022-12-27T17:28:02.216Z,60.37
2022-12-27T17:30:41.190Z,60.87
2022-12-27T17:33:24.447Z,60.88
2022-12-27T17:39:20.184Z,60.98
2022-12-27T17:45:20.263Z,60.67
2022-12-27T17:48:05.410Z,61.08
2022-12-27T17:50:33.777Z,61.25
2022-12-27T17:53:34.754Z,60.90
2022-12-27T17:56:30.362Z,61.22
2022-12-27T17:59:04.607Z,60.94
2022-12-27T18:01:36.152Z,60.86
2022-12-27T18:04:07.548Z,61.35
2022-12-27T18:06:38.668Z,61.59
2022-12-27T18:09:07.210Z,61.00
2022-12-27T18:11:35.927Z,61.00
2022-12-27T18:14:05.204Z,60.68
2022-12-27T18:16:41.057Z,60.92
2022-12-27T18:19:09.047Z,61.03
2022-12-27T18:21:36.852Z,60.77
2022-12-27T18:24:25.350Z,60.87
2022-12-27T18:27:01.943Z,60.89
2022-12-27T18:29:30.696Z,60.81
2022-12-27T18:32:04.380Z,60.44
2022-12-27T18:34:40.060Z,60.48
2022-12-27T18:37:10.985Z,59.98
2022-12-27T18:39:43.296Z,60.21
2022-12-27T18:42:18.566Z,60.26
2022-12-27T18:44:49.610Z,60.40
2022-12-27T18:47:22.724Z,59.99
2022-12-27T18:49:56.136Z,60.48
2022-12-27T18:52:27.715Z,60.66
2022-12-27T18:54:56.352Z,60.34
2022-12-27T18:57:35.259Z,60.64
2022-12-27T19:00:15.971Z,60.02
2022-12-27T19:02:46.048Z,60.22
2022-12-27T19:05:23.538Z,60.42
2022-12-27T19:07:55.816Z,60.00
2022-12-27T19:10:26.387Z,60.36
2022-12-27T19:12:56.166Z,60.49
2022-12-27T19:15:28.733Z,60.11
2022-12-27T19:18:01.578Z,60.60
2022-12-27T19:20:32.118Z,60.75
2022-12-27T19:23:02.736Z,60.11
2022-12-27T19:25:33.078Z,60.43
2022-12-27T19:28:03.870Z,60.98
2022-12-27T19:30:35.448Z,60.60
2022-12-27T19:33:09.801Z,60.61
2022-12-27T19:35:37.950Z,61.00
2022-12-27T19:38:05.804Z,60.68
2022-12-27T19:40:33.840Z,60.73
2022-12-27T19:43:01.746Z,60.85
2022-12-27T19:45:30.090Z,61.29
2022-12-27T19:47:58.012Z,61.47
2022-12-27T19:50:27.585Z,61.01
2022-12-27T19:52:55.950Z,61.78
2022-12-27T19:55:27.511Z,61.67
2022-12-27T19:57:56.148Z,61.76
2022-12-27T20:00:24.599Z,61.51
2022-12-27T20:02:53.692Z,61.56
2022-12-27T20:06:13.093Z,61.53
2022-12-27T20:08:25.260Z,61.63
2022-12-27T20:10:54.113Z,61.60
2022-12-27T20:13:22.609Z,61.75
2022-12-27T20:15:51.580Z,61.99
2022-12-27T20:18:21.692Z,62.49
2022-12-27T20:20:52.412Z,62.44
2022-12-27T20:23:21.967Z,62.52
2022-12-27T20:25:51.016Z,62.69
2022-12-27T20:28:20.715Z,62.67
2022-12-27T20:30:48.661Z,62.26
2022-12-27T20:33:17.036Z,62.97
2022-12-27T20:35:45.864Z,62.57
2022-12-27T20:38:13.759Z,62.67
2022-12-27T20:40:43.186Z,63.02
2022-12-27T20:43:14.333Z,62.53
2022-12-27T20:45:42.175Z,62.94
2022-12-27T20:48:10.896Z,62.92
2022-12-27T20:50:39.974Z,63.20
2022-12-27T20:53:09.078Z,63.42
2022-12-27T20:55:36.929Z,62.89
2022-12-27T20:58:06.984Z,63.45
2022-12-27T21:00:34.979Z,63.36
2022-12-27T21:03:02.943Z,63.22
2022-12-27T21:05:31.422Z,63.04
2022-12-27T21:07:59.296Z,63.21
2022-12-27T21:10:27.156Z,63.00
2022-12-27T21:12:55.495Z,63.36
2022-12-27T21:15:25.787Z,62.94
2022-12-27T21:17:53.695Z,62.87
2022-12-27T21:20:22.053Z,63.04
2022-12-27T21:22:49.910Z,63.05
2022-12-27T21:25:17.896Z,63.25
2022-12-27T21:27:46.240Z,63.10
2022-12-27T21:30:14.561Z,62.96
2022-12-27T21:32:43.798Z,63.44
2022-12-27T21:35:12.290Z,62.78
2022-12-27T21:37:40.167Z,63.24
2022-12-27T21:40:09.252Z,62.91
2022-12-27T21:42:37.654Z,63.03
2022-12-27T21:45:06.511Z,63.14
2022-12-27T21:47:34.453Z,62.83
2022-12-27T21:50:04.445Z,63.50
2022-12-27T21:52:32.261Z,63.25
2022-12-27T21:55:00.168Z,63.68
2022-12-27T21:57:28.535Z,63.68
2022-12-27T21:59:56.451Z,64.00
2022-12-27T22:02:24.527Z,63.36
2022-12-27T22:04:53.026Z,63.48
2022-12-27T22:07:22.350Z,63.14
2022-12-27T22:09:50.218Z,63.50
2022-12-27T22:12:18.527Z,64.02
2022-12-27T22:14:46.465Z,64.28
2022-12-27T22:17:14.384Z,64.06
2022-12-27T22:19:42.800Z,63.62
2022-12-27T22:22:13.678Z,63.98
2022-12-27T22:24:43.660Z,64.20
2022-12-27T22:27:11.534Z,64.34
2022-12-27T22:29:39.494Z,64.15
2022-12-27T22:32:07.811Z,64.13
2022-12-27T22:34:35.678Z,63.76
2022-12-27T22:37:03.666Z,64.08
2022-12-27T22:39:31.901Z,63.93
2022-12-27T22:42:01.278Z,64.09
2022-12-27T22:44:29.812Z,64.25
2022-12-27T22:47:25.824Z,64.31
2022-12-27T22:49:47.763Z,63.95
2022-12-27T22:52:15.684Z,63.84
2022-12-27T22:55:04.911Z,64.02
2022-12-27T22:57:36.426Z,64.62
2022-12-27T23:00:06.203Z,64.66
2022-12-27T23:02:34.578Z,64.36
2022-12-27T23:05:03.364Z,65.15
2022-12-27T23:08:04.124Z,64.86
2022-12-27T23:10:19.516Z,64.33
2022-12-27T23:12:48.836Z,64.76
2022-12-27T23:15:16.959Z,64.85
2022-12-27T23:17:45.247Z,64.98
2022-12-27T23:20:13.496Z,65.04
2022-12-27T23:22:41.399Z,64.88
2022-12-27T23:25:12.559Z,65.55
2022-12-27T23:27:40.645Z,65.18
2022-12-27T23:30:12.200Z,65.46
2022-12-27T23:32:40.244Z,65.33
2022-12-27T23:35:08.634Z,65.45
2022-12-27T23:37:36.403Z,65.29
2022-12-27T23:40:05.104Z,65.06
2022-12-27T23:42:32.990Z,65.07
2022-12-27T23:45:00.915Z,64.77
2022-12-27T23:47:30.532Z,64.93
2022-12-27T23:49:58.361Z,64.63
2022-12-27T23:52:26.321Z,65.02
2022-12-27T23:54:54.709Z,65.06
2022-12-27T23:57:23.075Z,65.00
2022-12-27T23:59:51.614Z,64.78
